地図

経路データ

SID SEASON NUMBER BASIN SUBBASIN NAME ISO_TIME NATURE LAT LON WMO_WIND WMO_PRES WMO_AGENCY TRACK_TYPE DIST2LAND LANDFALL IFLAG USA_AGENCY USA_ATCF_ID USA_LAT USA_LON USA_RECORD USA_STATUS USA_WIND USA_PRES USA_SSHS USA_R34_NE USA_R34_SE USA_R34_SW USA_R34_NW USA_R50_NE USA_R50_SE USA_R50_SW USA_R50_NW USA_R64_NE USA_R64_SE USA_R64_SW USA_R64_NW USA_POCI USA_ROCI USA_RMW USA_EYE TOKYO_LAT TOKYO_LON TOKYO_GRADE TOKYO_WIND TOKYO_PRES TOKYO_R50_DIR TOKYO_R50_LONG TOKYO_R50_SHORT TOKYO_R30_DIR TOKYO_R30_LONG TOKYO_R30_SHORT TOKYO_LAND CMA_LAT CMA_LON CMA_CAT CMA_WIND CMA_PRES HKO_LAT HKO_LON HKO_CAT HKO_WIND HKO_PRES NEWDELHI_LAT NEWDELHI_LON NEWDELHI_GRADE NEWDELHI_WIND NEWDELHI_PRES NEWDELHI_CI NEWDELHI_DP NEWDELHI_POCI REUNION_LAT REUNION_LON REUNION_TYPE REUNION_WIND REUNION_PRES REUNION_TNUM REUNION_CI REUNION_RMW REUNION_R34_NE REUNION_R34_SE REUNION_R34_SW REUNION_R34_NW REUNION_R50_NE REUNION_R50_SE REUNION_R50_SW REUNION_R50_NW REUNION_R64_NE REUNION_R64_SE REUNION_R64_SW REUNION_R64_NW BOM_LAT BOM_LON BOM_TYPE BOM_WIND BOM_PRES BOM_TNUM BOM_CI BOM_RMW BOM_R34_NE BOM_R34_SE BOM_R34_SW BOM_R34_NW BOM_R50_NE BOM_R50_SE BOM_R50_SW BOM_R50_NW BOM_R64_NE BOM_R64_SE BOM_R64_SW BOM_R64_NW BOM_ROCI BOM_POCI BOM_EYE BOM_POS_METHOD BOM_PRES_METHOD NADI_LAT NADI_LON NADI_CAT NADI_WIND NADI_PRES WELLINGTON_LAT WELLINGTON_LON WELLINGTON_WIND WELLINGTON_PRES DS824_LAT DS824_LON DS824_STAGE DS824_WIND DS824_PRES TD9636_LAT TD9636_LON TD9636_STAGE TD9636_WIND TD9636_PRES TD9635_LAT TD9635_LON TD9635_WIND TD9635_PRES TD9635_ROCI NEUMANN_LAT NEUMANN_LON NEUMANN_CLASS NEUMANN_WIND NEUMANN_PRES MLC_LAT MLC_LON MLC_CLASS MLC_WIND MLC_PRES USA_GUST BOM_GUST BOM_GUST_PER REUNION_GUST REUNION_GUST_PER USA_SEAHGT USA_SEARAD_NE USA_SEARAD_SE USA_SEARAD_SW USA_SEARAD_NW STORM_SPEED STORM_DIR
1972243N29282 1972 86 NA NA CARRIE 1972-08-29 12:00:00 TS 29.0000 -78.5000 30 1012 hurdat_atl main 202 202 O_____________ hurdat_atl AL111972 29.0000 -78.5000 TD 30 1012 -1 14 55
1972243N29282 1972 86 NA NA CARRIE 1972-08-29 15:00:00 TS 29.4056 -77.8460 main 280 280 P_____________ AL111972 29.4056 -77.8460 TD 30 -1 14 55
1972243N29282 1972 86 NA NA CARRIE 1972-08-29 18:00:00 TS 29.8000 -77.2000 30 hurdat_atl main 351 351 O_____________ hurdat_atl AL111972 29.8000 -77.2000 TD 30 -1 13 55
1972243N29282 1972 86 NA NA CARRIE 1972-08-29 21:00:00 TS 30.1723 -76.5773 main 409 409 P_____________ AL111972 30.1723 -76.5773 TD 30 -1 13 56
1972243N29282 1972 86 NA NA CARRIE 1972-08-30 00:00:00 TS 30.5000 -76.0000 30 hurdat_atl main 423 417 O_____________ hurdat_atl AL111972 30.5000 -76.0000 TD 30 -1 11 58
1972243N29282 1972 86 NA NA CARRIE 1972-08-30 03:00:00 TS 30.7646 -75.4844 main 417 417 P_____________ AL111972 30.7646 -75.4844 TD 30 -1 10 60
1972243N29282 1972 86 NA NA CARRIE 1972-08-30 06:00:00 TS 31.0000 -75.0000 30 hurdat_atl main 428 424 O_____________ hurdat_atl AL111972 31.0000 -75.0000 TD 30 -1 10 60
1972243N29282 1972 86 NA NA CARRIE 1972-08-30 09:00:00 TS 31.2498 -74.4997 main 432 420 P_____________ AL111972 31.2498 -74.4997 TD 30 -1 10 60
1972243N29282 1972 86 NA NA CARRIE 1972-08-30 12:00:00 TS 31.5000 -74.0000 30 hurdat_atl main 425 421 O_____________ hurdat_atl AL111972 31.5000 -74.0000 TD 30 -1 10 60
1972243N29282 1972 86 NA NA CARRIE 1972-08-30 15:00:00 TS 31.7498 -73.4997 main 435 426 P_____________ AL111972 31.7498 -73.4997 TD 30 -1 10 60
1972243N29282 1972 86 NA NA CARRIE 1972-08-30 18:00:00 TS 32.0000 -73.0000 30 hurdat_atl main 442 441 O_____________ hurdat_atl AL111972 32.0000 -73.0000 TD 30 -1 10 60
1972243N29282 1972 86 NA NA CARRIE 1972-08-30 21:00:00 TS 32.2500 -72.4849 main 462 455 P_____________ AL111972 32.2500 -72.4849 TD 32 -1 10 59
1972243N29282 1972 86 NA NA CARRIE 1972-08-31 00:00:00 TS 32.5000 -72.0000 35 hurdat_atl main 478 478 O_____________ hurdat_atl AL111972 32.5000 -72.0000 TS 35 0 9 57
1972243N29282 1972 86 NA NA CARRIE 1972-08-31 03:00:00 TS 32.7498 -71.5772 main 496 488 P_____________ AL111972 32.7498 -71.5772 TS 37 0 8 53
1972243N29282 1972 86 NA NA CARRIE 1972-08-31 06:00:00 TS 33.0000 -71.2000 40 hurdat_atl main 502 502 O_____________ hurdat_atl AL111972 33.0000 -71.2000 TS 40 0 8 50
1972243N29282 1972 86 NA NA CARRIE 1972-08-31 09:00:00 TS 33.2648 -70.8499 main 511 511 P_____________ AL111972 33.2648 -70.8499 TS 42 0 8 50
1972243N29282 1972 86 NA NA CARRIE 1972-08-31 12:00:00 TS 33.5000 -70.5000 45 hurdat_atl main 523 523 O_____________ hurdat_atl AL111972 33.5000 -70.5000 TS 45 0 8 59
1972243N29282 1972 86 NA NA CARRIE 1972-08-31 15:00:00 TS 33.6502 -70.0772 main 544 544 P_____________ AL111972 33.6502 -70.0772 TS 47 0 7 66
1972243N29282 1972 86 NA NA CARRIE 1972-08-31 18:00:00 TS 33.8000 -69.7000 50 1002 hurdat_atl main 573 573 O_____________ hurdat_atl AL111972 33.8000 -69.7000 TS 50 1002 0 7 51
1972243N29282 1972 86 NA NA CARRIE 1972-08-31 21:00:00 TS 34.0573 -69.4625 main 577 577 P_____________ AL111972 34.0573 -69.4625 TS 50 0 6 34
1972243N29282 1972 86 NA NA CARRIE 1972-09-01 00:00:00 TS 34.3000 -69.3000 50 hurdat_atl main 587 587 O_____________ hurdat_atl AL111972 34.3000 -69.3000 TS 50 0 4 39
1972243N29282 1972 86 NA NA CARRIE 1972-09-01 03:00:00 TS 34.4000 -69.1198 main 601 601 P_____________ AL111972 34.4000 -69.1198 TS 50 0 3 51
1972243N29282 1972 86 NA NA CARRIE 1972-09-01 06:00:00 TS 34.5000 -69.0000 50 hurdat_atl main 607 601 O_____________ hurdat_atl AL111972 34.5000 -69.0000 TS 50 0 4 18
1972243N29282 1972 86 NA NA CARRIE 1972-09-01 09:00:00 TS 34.7500 -68.9774 main 601 594 P_____________ AL111972 34.7500 -68.9774 TS 50 0 5 2
1972243N29282 1972 86 NA NA CARRIE 1972-09-01 12:00:00 TS 35.0000 -69.0000 50 hurdat_atl main 594 592 O_____________ hurdat_atl AL111972 35.0000 -69.0000 TS 50 0 4 0
1972243N29282 1972 86 NA NA CARRIE 1972-09-01 15:00:00 TS 35.1150 -68.9851 main 592 590 P_____________ AL111972 35.1150 -68.9851 TS 47 0 2 8
1972243N29282 1972 86 NA NA CARRIE 1972-09-01 18:00:00 TS 35.2000 -69.0000 45 hurdat_atl main 590 589 O_____________ hurdat_atl AL111972 35.2000 -69.0000 TS 45 0 2 348
1972243N29282 1972 86 NA NA CARRIE 1972-09-01 21:00:00 TS 35.3122 -69.0331 main 589 568 P_____________ AL111972 35.3122 -69.0331 TS 42 0 3 332
1972243N29282 1972 86 NA NA CARRIE 1972-09-02 00:00:00 TS 35.5000 -69.2000 40 hurdat_atl main 568 530 O_____________ hurdat_atl AL111972 35.5000 -69.2000 TS 40 0 7 318
1972243N29282 1972 86 NA NA CARRIE 1972-09-02 03:00:00 TS 35.8203 -69.6044 main 530 486 P_____________ AL111972 35.8203 -69.6044 TS 37 0 10 314
1972243N29282 1972 86 NA NA CARRIE 1972-09-02 06:00:00 TS 36.2000 -70.1000 35 hurdat_atl main 486 452 O_____________ hurdat_atl AL111972 36.2000 -70.1000 TS 35 0 11 314
1972243N29282 1972 86 NA NA CARRIE 1972-09-02 09:00:00 TS 36.5651 -70.5596 main 439 400 P_____________ AL111972 36.5651 -70.5596 TS 37 0 10 317
1972243N29282 1972 86 NA NA CARRIE 1972-09-02 12:00:00 TS 36.9000 -70.9000 40 1007 hurdat_atl main 400 379 O_____________ hurdat_atl AL111972 36.9000 -70.9000 TS 40 1007 0 7 330
1972243N29282 1972 86 NA NA CARRIE 1972-09-02 15:00:00 TS 37.1648 -70.9958 main 379 369 P_____________ AL111972 37.1648 -70.9958 TS 40 1005 0 5 351
1972243N29282 1972 86 NA NA CARRIE 1972-09-02 18:00:00 TS 37.4000 -71.0000 40 hurdat_atl main 369 348 I_____________ hurdat_atl AL111972 37.4000 -71.0000 TS 40 1004 0 5 348
1972243N29282 1972 86 NA NA CARRIE 1972-09-02 21:00:00 TS 37.6200 -71.1148 main 348 321 P_____________ AL111972 37.6200 -71.1148 TS 42 1003 0 5 342
1972243N29282 1972 86 NA NA CARRIE 1972-09-03 00:00:00 TS 37.9000 -71.2000 45 1002 hurdat_atl main 321 298 O_____________ hurdat_atl AL111972 37.9000 -71.2000 TS 45 1002 0 7 355
1972243N29282 1972 86 NA NA CARRIE 1972-09-03 03:00:00 TS 38.3200 -71.1875 main 298 256 P_____________ AL111972 38.3200 -71.1875 TS 47 0 9 5
1972243N29282 1972 86 NA NA CARRIE 1972-09-03 06:00:00 TS 38.8000 -71.1000 50 hurdat_atl main 256 223 O_____________ hurdat_atl AL111972 38.8000 -71.1000 TS 50 0 9 10
1972243N29282 1972 86 NA NA CARRIE 1972-09-03 09:00:00 TS 39.2499 -70.9872 main 223 195 P_____________ AL111972 39.2499 -70.9872 TS 52 0 9 14
1972243N29282 1972 86 NA NA CARRIE 1972-09-03 12:00:00 TS 39.7000 -70.8000 55 hurdat_atl main 195 155 O_____________ hurdat_atl AL111972 39.7000 -70.8000 TS 55 0 10 21
1972243N29282 1972 86 NA NA CARRIE 1972-09-03 15:00:00 TS 40.1500 -70.5299 main 145 108 P_____________ AL111972 40.1500 -70.5299 TS 57 0 10 27
1972243N29282 1972 86 NA NA CARRIE 1972-09-03 18:00:00 TS 40.6000 -70.2000 60 993 hurdat_atl main 108 78 O_____________ hurdat_atl AL111972 40.6000 -70.2000 TS 60 993 0 10 30
1972243N29282 1972 86 NA NA CARRIE 1972-09-03 21:00:00 TS 41.0197 -69.8786 main 78 47 P_____________ AL111972 41.0197 -69.8786 TS 57 992 0 10 30
1972243N29282 1972 86 NA NA CARRIE 1972-09-04 00:00:00 ET 41.5000 -69.5000 55 992 hurdat_atl main 47 42 O_____________ hurdat_atl AL111972 41.5000 -69.5000 EX 55 992 -4 12 31
1972243N29282 1972 86 NA NA CARRIE 1972-09-04 03:00:00 ET 42.0676 -69.0214 main 88 88 P_____________ AL111972 42.0676 -69.0214 EX 52 -4 15 30
1972243N29282 1972 86 NA NA CARRIE 1972-09-04 06:00:00 ET 42.8000 -68.5000 50 hurdat_atl main 134 56 O_____________ hurdat_atl AL111972 42.8000 -68.5000 EX 50 -4 19 23
1972243N29282 1972 86 NA NA CARRIE 1972-09-04 09:00:00 ET 43.8298 -68.0017 main 56 0 P_____________ AL111972 43.8298 -68.0017 EX 50 -4 21 20
1972243N29282 1972 86 NA NA CARRIE 1972-09-04 12:00:00 ET 44.8000 -67.5000 50 hurdat_atl main 0 0 O_____________ hurdat_atl AL111972 44.8000 -67.5000 EX 50 -4 17 25
1972243N29282 1972 86 NA NA CARRIE 1972-09-04 15:00:00 ET 45.3397 -66.9973 main 0 0 P_____________ AL111972 45.3397 -66.9973 EX 47 -4 11 38
1972243N29282 1972 86 NA NA CARRIE 1972-09-04 18:00:00 ET 45.7000 -66.5000 45 hurdat_atl main 0 0 O_____________ hurdat_atl AL111972 45.7000 -66.5000 EX 45 -4 11 41
1972243N29282 1972 86 NA NA CARRIE 1972-09-04 21:00:00 ET 46.1448 -66.0001 main 0 0 P_____________ AL111972 46.1448 -66.0001 EX 42 -4 11 41
1972243N29282 1972 86 NA NA CARRIE 1972-09-05 00:00:00 ET 46.5000 -65.5000 40 1005 hurdat_atl main 0 0 O_____________ hurdat_atl AL111972 46.5000 -65.5000 EX 40 1005 -4 9 50
1972243N29282 1972 86 NA NA CARRIE 1972-09-05 03:00:00 ET 46.6942 -65.0362 main 0 0 P_____________ AL111972 46.6942 -65.0362 EX 40 -4 7 66
1972243N29282 1972 86 NA NA CARRIE 1972-09-05 06:00:00 ET 46.8000 -64.5000 40 hurdat_atl main 13 0 O_____________ hurdat_atl AL111972 46.8000 -64.5000 EX 40 -4 9 76
1972243N29282 1972 86 NA NA CARRIE 1972-09-05 09:00:00 ET 46.8991 -63.8011 main 15 15 P_____________ AL111972 46.8991 -63.8011 EX 40 -4 10 79
1972243N29282 1972 86 NA NA CARRIE 1972-09-05 12:00:00 ET 47.0000 -63.0000 40 hurdat_atl main 67 O_____________ hurdat_atl AL111972 47.0000 -63.0000 EX 40 -4 11 80

IBTrACS Databaseについて

本データベースは、米国NOAAが公開する1842年以降の世界の熱帯低気圧のベストトラックデータアーカイブInternational Best Track Archive for Climate Stewardship (IBTrACS)を、ウェブで閲覧しやすい形式に変換したものです。

最終更新日:2021-11-26